createdAt,value
2023-02-19T08:12:10.443Z,3.61
2023-02-19T08:15:24.503Z,3.59
2023-02-19T08:19:18.011Z,3.58
2023-02-19T08:22:48.632Z,3.56
2023-02-19T08:26:10.264Z,3.47
2023-02-19T08:33:42.505Z,3.39
2023-02-19T09:31:21.284Z,4.35
2023-02-19T09:33:49.773Z,4.39
2023-02-19T09:36:19.233Z,4.46
2023-02-19T09:39:02.629Z,4.53
2023-02-19T09:41:39.908Z,4.61
2023-02-19T09:44:32.864Z,4.74
2023-02-19T09:50:51.338Z,4.80
2023-02-19T09:53:29.452Z,4.86
2023-02-19T09:56:11.650Z,4.90
2023-02-19T10:02:11.660Z,4.90
2023-02-19T10:05:11.826Z,4.97
2023-02-19T10:07:51.040Z,5.02
2023-02-19T10:10:34.621Z,5.11
2023-02-19T10:16:22.791Z,5.22
2023-02-19T10:18:51.160Z,5.33
2023-02-19T10:21:24.202Z,5.30
2023-02-19T10:24:02.969Z,5.23
2023-02-19T10:26:36.829Z,5.07
2023-02-19T10:29:05.749Z,4.92
2023-02-19T10:31:34.319Z,4.83
2023-02-19T10:34:03.719Z,4.85
2023-02-19T10:36:36.487Z,4.96
2023-02-19T10:39:22.081Z,5.07
2023-02-19T10:41:54.667Z,5.12
2023-02-19T10:44:28.981Z,5.10
2023-02-19T10:47:00.115Z,5.11
2023-02-19T10:49:40.262Z,5.10
2023-02-19T10:52:35.402Z,5.11
2023-02-19T10:55:28.621Z,5.12
2023-02-19T10:57:58.448Z,5.15
2023-02-19T11:00:30.924Z,5.09
2023-02-19T11:03:21.483Z,5.10
2023-02-19T11:06:08.392Z,5.16
2023-02-19T11:08:55.322Z,5.10
2023-02-19T11:11:28.752Z,5.02
2023-02-19T11:14:00.022Z,5.02
2023-02-19T11:16:44.905Z,5.10
2023-02-19T11:19:45.282Z,5.10
2023-02-19T11:22:38.293Z,4.96
2023-02-19T11:25:15.618Z,4.88
2023-02-19T11:28:21.060Z,4.83
2023-02-19T11:30:49.461Z,4.82
2023-02-19T11:33:17.857Z,4.82
2023-02-19T11:36:13.185Z,4.83
2023-02-19T11:38:42.600Z,4.96
2023-02-19T11:41:45.779Z,5.05
2023-02-19T11:44:30.754Z,5.09
2023-02-19T11:47:29.991Z,5.10
2023-02-19T11:50:21.963Z,5.05
2023-02-19T11:53:04.149Z,4.90
2023-02-19T11:55:41.802Z,4.83
2023-02-19T12:04:55.270Z,4.89
2023-02-19T12:07:50.049Z,5.01
2023-02-19T12:10:43.780Z,5.21
2023-02-19T12:17:06.616Z,5.42
2023-02-19T12:19:54.655Z,5.54
2023-02-19T12:22:35.877Z,5.69
2023-02-19T12:29:24.817Z,5.84
2023-02-19T12:35:46.314Z,5.82
2023-02-19T12:38:39.714Z,5.74
2023-02-19T12:41:42.094Z,5.72
2023-02-19T12:44:25.073Z,5.73
2023-02-19T12:50:21.356Z,5.62
2023-02-19T12:56:08.771Z,5.44
2023-02-19T12:59:14.758Z,5.34
2023-02-19T13:02:40.470Z,5.26
2023-02-19T13:05:24.265Z,5.24
2023-02-19T13:08:39.549Z,5.33
2023-02-19T13:11:37.121Z,5.36
2023-02-19T13:14:29.954Z,5.38
2023-02-19T13:17:31.268Z,5.38
2023-02-19T13:20:28.323Z,5.35
2023-02-19T13:23:58.182Z,5.37
2023-02-19T13:27:01.893Z,5.49
2023-02-19T13:30:05.196Z,5.56
2023-02-19T13:32:49.838Z,5.59
2023-02-19T13:35:55.917Z,5.56
2023-02-19T13:38:24.937Z,5.52
2023-02-19T13:40:58.002Z,5.51
2023-02-19T13:43:43.056Z,5.49
2023-02-19T13:49:42.479Z,5.49
2023-02-19T13:52:30.318Z,5.52
2023-02-19T13:55:42.518Z,5.55
2023-02-19T13:58:33.894Z,5.56
2023-02-19T14:01:54.397Z,5.52
2023-02-19T14:05:07.504Z,5.40
2023-02-19T14:07:50.623Z,5.26
2023-02-19T14:10:56.217Z,5.15
2023-02-19T14:13:52.216Z,5.07
2023-02-19T14:16:39.908Z,5.01
2023-02-19T14:19:41.635Z,4.97
2023-02-19T14:22:47.837Z,4.86
2023-02-19T14:25:46.015Z,4.78
2023-02-19T14:28:23.615Z,4.74
2023-02-19T14:31:18.076Z,4.74
2023-02-19T14:34:23.954Z,4.77
2023-02-19T14:37:01.452Z,4.84
2023-02-19T14:39:45.704Z,4.91
2023-02-19T14:45:25.151Z,5.08
2023-02-19T14:47:57.468Z,5.08
2023-02-19T14:50:32.571Z,5.08
2023-02-19T14:53:05.861Z,5.07
2023-02-19T14:55:42.951Z,5.11
2023-02-19T14:58:18.518Z,5.13
2023-02-19T15:00:48.032Z,5.14
2023-02-19T15:03:33.892Z,5.11
2023-02-19T15:06:20.614Z,5.14
2023-02-19T15:08:55.492Z,5.14
2023-02-19T15:11:37.912Z,5.10
2023-02-19T15:14:25.111Z,5.08
2023-02-19T15:17:04.341Z,5.04
2023-02-19T15:19:39.706Z,5.00
2023-02-19T15:22:15.776Z,4.96
2023-02-19T15:24:48.482Z,4.94
2023-02-19T15:27:25.255Z,4.93
2023-02-19T15:29:54.357Z,4.92
2023-02-19T15:32:36.458Z,4.88
2023-02-19T15:35:07.052Z,4.84
2023-02-19T15:37:50.098Z,4.79
2023-02-19T15:40:32.942Z,4.76
2023-02-19T19:22:23.043Z,2.62
2023-02-19T19:27:52.366Z,2.54
2023-02-19T19:30:34.534Z,2.49
2023-02-19T19:36:13.314Z,2.38
2023-02-19T19:38:55.721Z,2.36
2023-02-19T19:44:08.977Z,2.37
2023-02-19T19:46:45.225Z,2.37
2023-02-19T19:49:27.677Z,2.36
2023-02-19T19:51:58.705Z,2.36
2023-02-19T19:54:44.395Z,2.34
2023-02-19T19:57:13.655Z,2.30
2023-02-19T19:59:42.337Z,2.27
2023-02-19T20:02:12.361Z,2.21
2023-02-19T20:04:44.635Z,2.15
2023-02-19T20:07:13.205Z,2.12
2023-02-19T20:09:41.845Z,2.10
2023-02-19T20:12:11.227Z,2.09
2023-02-19T20:14:40.085Z,2.07
2023-02-19T20:17:27.505Z,2.05
2023-02-19T20:19:56.302Z,2.01
2023-02-19T20:22:25.397Z,2.00
2023-02-19T20:24:55.377Z,1.99
2023-02-19T20:27:24.815Z,1.96
2023-02-19T20:29:53.094Z,1.95
2023-02-19T20:32:35.806Z,1.95
2023-02-19T20:35:04.963Z,1.93
2023-02-19T20:37:33.913Z,1.87
2023-02-19T20:40:03.516Z,1.84
2023-02-19T20:42:45.678Z,1.82
2023-02-19T20:45:17.110Z,1.83
2023-02-19T20:47:45.652Z,1.79
2023-02-19T20:50:19.075Z,1.75
2023-02-19T20:52:47.277Z,1.71
2023-02-19T20:55:16.666Z,1.69
2023-02-19T20:57:58.935Z,1.66
2023-02-19T21:00:27.603Z,1.63
2023-02-19T21:02:56.506Z,1.62
2023-02-19T21:05:25.259Z,1.61
2023-02-19T21:07:53.874Z,1.56
2023-02-19T21:10:22.680Z,1.53
2023-02-19T21:12:52.599Z,1.49
2023-02-19T21:15:35.002Z,1.45
2023-02-19T21:18:17.815Z,1.43
2023-02-19T21:20:46.874Z,1.42
2023-02-19T21:23:29.107Z,1.43
2023-02-19T21:25:58.005Z,1.42
2023-02-19T21:28:26.693Z,1.43
2023-02-19T21:31:09.666Z,1.42
2023-02-19T21:33:38.868Z,1.44
2023-02-19T21:36:08.154Z,1.42
2023-02-19T21:38:50.316Z,1.41
2023-02-19T21:44:28.714Z,1.37
2023-02-19T21:46:57.435Z,1.36
2023-02-19T21:52:23.520Z,1.35
2023-02-19T21:55:06.676Z,1.34
2023-02-19T21:57:48.888Z,1.35
2023-02-19T22:00:31.727Z,1.37
2023-02-19T22:03:00.342Z,1.38
2023-02-19T22:05:29.095Z,1.41
2023-02-19T22:08:11.295Z,1.41
2023-02-19T22:10:53.379Z,1.43
2023-02-19T22:13:35.742Z,1.42
2023-02-19T22:19:14.789Z,1.40
2023-02-19T22:21:56.967Z,1.38
2023-02-19T22:24:38.951Z,1.36
2023-02-19T22:27:21.056Z,1.37
2023-02-19T22:30:03.804Z,1.39
2023-02-19T22:32:45.973Z,1.37
2023-02-19T22:35:27.920Z,1.34
2023-02-19T22:38:10.020Z,1.31
2023-02-19T22:40:52.102Z,1.29
2023-02-19T22:43:34.300Z,1.31
2023-02-19T22:49:22.298Z,1.26
2023-02-19T22:52:10.077Z,1.25
2023-02-19T22:54:39.124Z,1.24
2023-02-19T22:57:21.483Z,1.23
2023-02-19T23:01:02.981Z,1.21
2023-02-19T23:04:35.772Z,1.16
2023-02-19T23:08:03.815Z,1.13
2023-02-19T23:12:28.887Z,1.12
2023-02-19T23:21:03.104Z,1.11
2023-02-19T23:25:38.960Z,1.04
2023-02-19T23:30:08.807Z,1.00
2023-02-19T23:37:51.255Z,0.92
2023-02-19T23:42:21.743Z,0.76
2023-02-19T23:46:51.400Z,0.63
2023-02-19T23:51:21.277Z,0.53
2023-02-19T23:59:16.950Z,0.47
